Celebrity Infinity — 9HJD9 — position and weather

sailwx.info

Track history (hours):
 
Tides and Currents Weather Stations Pressure Air Temp Water Temp Dewpoint Dewpoint Depression Visibility Wind Speed Wind Dir Waves Ship Positions

Celebrity Infinity

Last reported at 2016-Jul-24 15:31 UTC. Time now 2016-Jul-24 16:38 UTC.
Position N 49°17' W 123°07'.

Length 294 m; draft 8.3 m.

Type: Ship. MMSI: 249048000.

Date/timePositionNaut miles runAvg speedWind from/ knotsBaromVisibWave heightAir tempDewpointWater temp
2016-Jul-24 15:31N 49°17' W 123°07'0 0.0
2016-Jul-24 14:32N 49°17' W 123°07'1 0.7
2016-Jul-24 13:34N 49°18' W 123°06'9 8.5
2016-Jul-24 12:33N 49°19' W 123°19'10 9.7
2016-Jul-24 11:33N 49°19' W 123°34'1111.5
2016-Jul-24 10:33N 49°21' W 123°51'1111.0
2016-Jul-24 09:33N 49°24' W 124°08'1010.5
2016-Jul-24 08:33N 49°27' W 124°23'1110.9
2016-Jul-24 07:33N 49°34' W 124°36'1111.0
2016-Jul-24 06:33N 49°43' W 124°47'1211.5
2016-Jul-24 05:33N 49°51' W 124°59'1111.0
2016-Jul-24 04:32N 49°59' W 125°11'1111.4
2016-Jul-24 03:34N 50°08' W 125°21'5016.4
2016-Jul-24 00:30N 50°30' W 126°31'1817.2
2016-Jul-23 23:27N 50°41' W 126°54'3719.8
2016-Jul-23 21:33N 50°58' W 127°47'1413.5
2016-Jul-23 20:33N 51°06' W 128°04'  
2016-Jul-21 10:21N 58°09' W 135°16'1315.7
2016-Jul-21 09:33N 58°15' W 135°37'1515.0
2016-Jul-21 08:33N 58°20' W 136°04'5 0.2
2016-Jul-20 08:12N 58°19' W 136°13'1116.3
2016-Jul-20 07:33N 58°20' W 135°53'1717.5
2016-Jul-20 06:33N 58°11' W 135°24'48112.2
2016-Jul-18 15:06N 51°16' W 128°24'917.1
2016-Jul-18 14:33N 51°10' W 128°12'1717.2
2016-Jul-18 13:33N 51°01' W 127°50'1514.6
2016-Jul-18 12:33N 50°51' W 127°32'1515.0
2016-Jul-18 11:33N 50°45' W 127°10'1514.9
2016-Jul-18 10:34N 50°39' W 126°49'5814.4
2016-Jul-18 06:32N 50°17' W 125°24'1313.4
2016-Jul-18 05:34N 50°05' W 125°16'1717.2
2016-Jul-18 04:33N 49°51' W 124°59'2020.0
2016-Jul-18 03:33N 49°37' W 124°38'1919.3
2016-Jul-18 02:33N 49°25' W 124°15'2019.5
2016-Jul-18 01:33N 49°20' W 123°46'1918.9
2016-Jul-18 00:34N 49°19' W 123°17'7 6.7
2016-Jul-17 23:33N 49°17' W 123°07'0 0.0
2016-Jul-17 22:32N 49°17' W 123°07'0 0.0
2016-Jul-17 21:32N 49°17' W 123°07'0 0.0
2016-Jul-17 20:31N 49°17' W 123°07'0 0.0
2016-Jul-17 19:31N 49°17' W 123°07'0 0.0
2016-Jul-17 18:33N 49°17' W 123°07'0 0.0
2016-Jul-17 17:33N 49°17' W 123°07'0 0.0
2016-Jul-17 16:32N 49°17' W 123°07'0 0.0
2016-Jul-17 15:32N 49°17' W 123°07'0 0.0
2016-Jul-17 14:32N 49°17' W 123°07'1 0.7
2016-Jul-17 13:34N 49°18' W 123°06'1110.6
2016-Jul-17 12:34N 49°18' W 123°22'1414.3
2016-Jul-17 11:33N 49°21' W 123°44'1514.4
2016-Jul-17 10:31N 49°24' W 124°06'1414.2
2016-Jul-17 09:33N 49°28' W 124°26'1414.4
2016-Jul-17 08:33N 49°38' W 124°41'1515.4
2016-Jul-17 07:33N 49°50' W 124°57'1615.6
2016-Jul-17 06:33N 50°02' W 125°13'6815.6
2016-Jul-17 02:10N 50°37' W 126°45'1220.1
2016-Jul-17 01:33N 50°43' W 127°02'2020.1
2016-Jul-17 00:34N 50°51' W 127°31'1514.6
2016-Jul-16 23:33N 50°60' W 127°50'1615.4
2016-Jul-16 22:30N 51°07' W 128°12'  
Track history (hours):
 
Tides and Currents Weather Stations Pressure Air Temp Water Temp Dewpoint Dewpoint Depression Visibility Wind Speed Wind Dir Waves Ship Positions

Celebrity Infinity

Last reported at 2016-Jul-24 15:31 UTC. Time now 2016-Jul-24 16:38 UTC.
Position N 49°17' W 123°07'.

Length 294 m; draft 8.3 m.

Type: Ship. MMSI: 249048000.

Date/timePositionNaut miles runAvg speedWind from/ knotsBaromVisibWave heightAir tempDewpointWater temp
2016-Jul-24 15:31N 49°17' W 123°07'0 0.0
2016-Jul-24 14:32N 49°17' W 123°07'1 0.7
2016-Jul-24 13:34N 49°18' W 123°06'9 8.5
2016-Jul-24 12:33N 49°19' W 123°19'10 9.7
2016-Jul-24 11:33N 49°19' W 123°34'1111.5
2016-Jul-24 10:33N 49°21' W 123°51'1111.0
2016-Jul-24 09:33N 49°24' W 124°08'1010.5
2016-Jul-24 08:33N 49°27' W 124°23'1110.9
2016-Jul-24 07:33N 49°34' W 124°36'1111.0
2016-Jul-24 06:33N 49°43' W 124°47'1211.5
2016-Jul-24 05:33N 49°51' W 124°59'1111.0
2016-Jul-24 04:32N 49°59' W 125°11'1111.4
2016-Jul-24 03:34N 50°08' W 125°21'5016.4
2016-Jul-24 00:30N 50°30' W 126°31'1817.2
2016-Jul-23 23:27N 50°41' W 126°54'3719.8
2016-Jul-23 21:33N 50°58' W 127°47'1413.5
2016-Jul-23 20:33N 51°06' W 128°04'  
2016-Jul-21 10:21N 58°09' W 135°16'1315.7
2016-Jul-21 09:33N 58°15' W 135°37'1515.0
2016-Jul-21 08:33N 58°20' W 136°04'5 0.2
2016-Jul-20 08:12N 58°19' W 136°13'1116.3
2016-Jul-20 07:33N 58°20' W 135°53'1717.5
2016-Jul-20 06:33N 58°11' W 135°24'48112.2
2016-Jul-18 15:06N 51°16' W 128°24'917.1
2016-Jul-18 14:33N 51°10' W 128°12'1717.2
2016-Jul-18 13:33N 51°01' W 127°50'1514.6
2016-Jul-18 12:33N 50°51' W 127°32'1515.0
2016-Jul-18 11:33N 50°45' W 127°10'1514.9
2016-Jul-18 10:34N 50°39' W 126°49'5814.4
2016-Jul-18 06:32N 50°17' W 125°24'1313.4
2016-Jul-18 05:34N 50°05' W 125°16'1717.2
2016-Jul-18 04:33N 49°51' W 124°59'2020.0
2016-Jul-18 03:33N 49°37' W 124°38'1919.3
2016-Jul-18 02:33N 49°25' W 124°15'2019.5
2016-Jul-18 01:33N 49°20' W 123°46'1918.9
2016-Jul-18 00:34N 49°19' W 123°17'7 6.7
2016-Jul-17 23:33N 49°17' W 123°07'0 0.0
2016-Jul-17 22:32N 49°17' W 123°07'0 0.0
2016-Jul-17 21:32N 49°17' W 123°07'0 0.0
2016-Jul-17 20:31N 49°17' W 123°07'0 0.0
2016-Jul-17 19:31N 49°17' W 123°07'0 0.0
2016-Jul-17 18:33N 49°17' W 123°07'0 0.0
2016-Jul-17 17:33N 49°17' W 123°07'0 0.0
2016-Jul-17 16:32N 49°17' W 123°07'0 0.0
2016-Jul-17 15:32N 49°17' W 123°07'0 0.0
2016-Jul-17 14:32N 49°17' W 123°07'1 0.7
2016-Jul-17 13:34N 49°18' W 123°06'1110.6
2016-Jul-17 12:34N 49°18' W 123°22'1414.3
2016-Jul-17 11:33N 49°21' W 123°44'1514.4
2016-Jul-17 10:31N 49°24' W 124°06'1414.2
2016-Jul-17 09:33N 49°28' W 124°26'1414.4
2016-Jul-17 08:33N 49°38' W 124°41'1515.4
2016-Jul-17 07:33N 49°50' W 124°57'1615.6
2016-Jul-17 06:33N 50°02' W 125°13'6815.6
2016-Jul-17 02:10N 50°37' W 126°45'1220.1
2016-Jul-17 01:33N 50°43' W 127°02'2020.1
2016-Jul-17 00:34N 50°51' W 127°31'1514.6
2016-Jul-16 23:33N 50°60' W 127°50'1615.4
2016-Jul-16 22:30N 51°07' W 128°12'  

Dump ship's entire track history